EDT,Max TemperatureF,Mean TemperatureF,Min TemperatureF,Max Dew PointF,MeanDew PointF,Min DewpointF,Max Humidity, Mean Humidity, Min Humidity, Max Sea Level PressureIn, Mean Sea Level PressureIn, Min Sea Level PressureIn, Max VisibilityMiles, Mean VisibilityMiles, Min VisibilityMiles, Max Wind SpeedMPH, Mean Wind SpeedMPH, Max Gust SpeedMPH,PrecipitationIn, CloudCover, Events, WindDirDegrees
2014-7-1,87,75,64,70,67,63,93,72,59,29.96,29.89,29.83,10,10,10,17,5,25,0.00,1,,199
2014-7-2,88,79,70,74,69,66,93,83,59,30.01,29.92,29.85,10,8,0,18,6,30,1.30,3,Fog-Rain-Thunderstorm,175
2014-7-3,86,76,66,74,69,65,97,87,69,30.06,29.97,29.91,10,6,1,14,3,24,0.34,5,Rain-Thunderstorm,180
2014-7-4,71,67,63,67,62,54,93,83,70,30.01,29.97,29.91,10,9,2,17,5,22,0.03,7,Rain,335
2014-7-5,79,69,59,53,49,43,75,51,32,30.13,30.08,30.00,10,10,10,17,7,23,0.00,0,,281
2014-7-6,82,68,54,57,54,51,93,61,36,30.10,30.02,29.93,10,10,10,16,4,26,0.00,0,,232
2014-7-7,88,78,68,68,64,58,96,69,46,29.93,29.82,29.73,10,9,1,20,8,33,0.00,3,Rain-Thunderstorm,225
2014-7-8,88,77,66,70,66,61,96,74,48,29.87,29.78,29.68,10,8,2,17,7,30,0.00,2,Rain-Thunderstorm,224
2014-7-9,84,76,66,66,64,59,90,73,43,29.97,29.86,29.76,10,9,5,14,5,,0.00,1,Rain-Thunderstorm,223
2014-7-10,81,72,64,63,58,54,90,63,43,30.16,30.11,30.00,10,10,7,8,3,,0.00,2,,5
2014-7-11,82,72,62,62,56,50,84,60,34,30.24,30.20,30.16,10,10,10,8,2,,0.00,1,,323
2014-7-12,84,71,60,63,59,56,90,66,44,30.25,30.20,30.15,10,9,5,13,4,,0.00,1,,207
2014-7-13,82,75,69,68,66,60,84,75,62,30.14,30.02,29.91,10,9,7,15,6,28,0.00,3,Rain,188
2014-7-14,79,74,70,70,68,66,91,85,72,29.95,29.90,29.86,10,7,1,15,7,24,1.09,7,Rain-Thunderstorm,195
2014-7-15,82,76,71,73,70,68,91,84,74,29.85,29.80,29.75,10,6,0,12,6,,1.24,7,Rain-Thunderstorm,195
2014-7-16,79,71,64,67,63,56,93,79,48,29.91,29.81,29.76,10,8,2,8,4,,0.00,5,Rain,237
2014-7-17,78,67,57,60,56,52,87,66,46,30.12,30.00,29.91,10,10,10,10,4,,0.00,1,,262
2014-7-18,78,66,54,59,52,46,90,65,33,30.25,30.21,30.14,10,10,10,10,4,,0.00,0,,265
2014-7-19,75,66,57,60,57,54,90,73,53,30.28,30.25,30.21,10,10,10,8,2,,0.00,0,,121
2014-7-20,77,69,60,61,57,54,87,67,46,30.21,30.17,30.12,10,10,10,9,3,,0.00,3,,97
2014-7-21,81,69,57,63,58,53,93,71,50,30.22,30.18,30.15,10,10,7,8,2,,0.00,2,,179
2014-7-22,84,73,62,68,64,59,90,71,53,30.18,30.12,30.04,10,10,6,12,4,,0.00,1,,224
2014-7-23,87,78,70,72,67,63,90,74,59,30.03,29.90,29.78,10,8,1,16,7,26,0.68,2,Rain-Thunderstorm,225
2014-7-24,78,70,63,67,60,53,90,69,43,29.94,29.87,29.81,10,10,6,12,5,22,0.01,3,Rain,333
2014-7-25,78,66,55,59,54,52,87,63,40,30.05,30.00,29.94,10,9,7,10,3,,0.00,0,,277
2014-7-26,77,67,59,64,60,56,90,75,59,30.01,29.96,29.91,10,10,9,10,3,,0.00,2,,201
2014-7-27,82,75,68,69,66,64,90,81,60,29.90,29.79,29.68,10,6,2,12,4,,0.01,5,Rain-Thunderstorm,179
2014-7-28,81,73,66,69,64,55,91,77,52,29.68,29.58,29.50,10,9,5,17,7,26,0.02,5,Rain-Thunderstorm,218
2014-7-29,73,66,59,57,53,50,83,66,46,29.98,29.86,29.68,10,10,10,8,5,,0.00,4,,266
2014-7-30,75,64,54,56,52,47,90,65,40,30.06,30.02,29.98,10,10,10,7,4,,0.00,2,,232
2014-7-31,80,67,55,62,57,53,90,68,47,30.17,30.11,30.06,10,10,8,15,4,22,0.00,1,,209